createdAt,value
2024-02-29T00:00:14.194Z,35.67
2024-02-29T00:02:42.160Z,33.65
2024-02-29T00:05:12.807Z,33.78
2024-02-29T00:07:41.074Z,37.20
2024-02-29T00:10:10.549Z,33.70
2024-02-29T00:12:39.900Z,33.85
2024-02-29T00:15:08.802Z,35.20
2024-02-29T00:17:37.981Z,33.00
2024-02-29T00:20:10.547Z,35.42
2024-02-29T00:22:38.986Z,35.50
2024-02-29T00:25:07.542Z,33.88
2024-02-29T00:27:35.350Z,32.53
2024-02-29T00:30:03.186Z,35.22
2024-02-29T00:32:31.001Z,34.97
2024-02-29T00:35:00.159Z,34.00
2024-02-29T00:37:29.643Z,35.13
2024-02-29T00:39:59.515Z,37.50
2024-02-29T00:42:27.302Z,36.95
2024-02-29T00:44:55.100Z,35.55
2024-02-29T00:47:22.903Z,36.88
2024-02-29T00:49:50.673Z,33.67
2024-02-29T00:52:19.872Z,34.83
2024-02-29T00:54:47.657Z,36.47
2024-02-29T00:57:15.406Z,34.92
2024-02-29T00:59:43.238Z,37.83
2024-02-29T01:02:10.971Z,34.50
2024-02-29T01:04:39.058Z,37.20
2024-02-29T01:07:06.858Z,35.50
2024-02-29T01:09:36.054Z,36.88
2024-02-29T01:12:03.821Z,35.58
2024-02-29T01:14:31.497Z,34.05
2024-02-29T01:16:59.218Z,36.58
2024-02-29T01:19:26.909Z,35.53
2024-02-29T01:21:54.639Z,35.85
2024-02-29T01:24:24.633Z,36.78
2024-02-29T01:26:53.763Z,35.72
2024-02-29T01:29:21.485Z,35.53
2024-02-29T01:31:49.204Z,38.20
2024-02-29T01:34:17.020Z,35.22
2024-02-29T01:36:45.698Z,37.47
2024-02-29T01:39:13.604Z,35.33
2024-02-29T01:41:41.386Z,34.95
2024-02-29T01:44:10.427Z,34.13
2024-02-29T01:46:38.185Z,36.72
2024-02-29T01:49:05.991Z,34.88
2024-02-29T01:51:34.486Z,36.63
2024-02-29T01:54:02.398Z,34.17
2024-02-29T01:56:30.163Z,36.55
2024-02-29T01:58:58.041Z,36.42
2024-02-29T02:01:27.601Z,37.78
2024-02-29T02:03:55.345Z,34.85
2024-02-29T02:06:23.152Z,35.88
2024-02-29T02:08:50.923Z,34.03
2024-02-29T02:11:18.717Z,36.33
2024-02-29T02:13:46.434Z,35.83
2024-02-29T02:16:14.319Z,35.97
2024-02-29T02:18:43.492Z,35.85
2024-02-29T02:21:12.560Z,35.83
2024-02-29T02:23:40.197Z,35.72
2024-02-29T02:26:07.894Z,35.13
2024-02-29T02:28:35.582Z,34.15
2024-02-29T02:31:03.310Z,34.15
2024-02-29T02:33:31.103Z,36.72
2024-02-29T02:35:58.792Z,36.17
2024-02-29T02:38:27.834Z,34.75
2024-02-29T02:40:55.566Z,34.63
2024-02-29T02:43:23.466Z,34.08
2024-02-29T02:45:51.190Z,34.47
2024-02-29T02:48:18.937Z,36.47
2024-02-29T02:50:46.787Z,35.70
2024-02-29T02:53:14.574Z,35.75
2024-02-29T02:55:43.644Z,35.60
2024-02-29T02:58:11.405Z,34.25
2024-02-29T03:00:39.135Z,34.95
2024-02-29T03:03:06.934Z,35.88
2024-02-29T03:05:34.596Z,32.92
2024-02-29T03:08:04.596Z,33.75
2024-02-29T03:10:32.278Z,35.03
2024-02-29T03:13:01.500Z,34.25
2024-02-29T03:15:29.307Z,34.50
2024-02-29T03:17:57.657Z,35.42
2024-02-29T03:20:25.408Z,34.95
2024-02-29T03:22:53.164Z,33.92
2024-02-29T03:25:21.320Z,34.25
2024-02-29T03:27:49.712Z,35.20
2024-02-29T03:30:19.258Z,36.17
2024-02-29T03:32:47.070Z,35.00
2024-02-29T03:35:14.920Z,32.33
2024-02-29T03:37:42.656Z,34.72
2024-02-29T03:40:11.653Z,35.28
2024-02-29T03:42:40.790Z,33.33
2024-02-29T03:45:09.915Z,34.17
2024-02-29T03:47:39.816Z,33.83
2024-02-29T03:50:11.291Z,35.55
2024-02-29T03:52:39.816Z,36.47
2024-02-29T03:55:09.349Z,32.85
2024-02-29T03:57:37.293Z,34.60
2024-02-29T04:00:12.106Z,34.47
2024-02-29T04:02:41.929Z,34.28
2024-02-29T04:05:10.465Z,33.15
2024-02-29T04:07:38.976Z,35.25
2024-02-29T04:10:07.578Z,33.80
2024-02-29T04:12:35.391Z,34.78
2024-02-29T04:15:03.691Z,32.85
2024-02-29T04:17:31.851Z,32.55
2024-02-29T04:20:00.960Z,33.50
2024-02-29T04:22:30.822Z,34.20
2024-02-29T04:24:58.597Z,34.33
2024-02-29T04:27:26.395Z,36.85
2024-02-29T04:29:54.819Z,34.55
2024-02-29T04:32:22.609Z,33.28
2024-02-29T04:34:50.412Z,33.17
2024-02-29T04:37:19.610Z,33.53
2024-02-29T04:39:47.465Z,34.63
2024-02-29T04:42:15.214Z,35.60
2024-02-29T04:44:42.956Z,34.25
2024-02-29T04:47:10.780Z,33.33
2024-02-29T04:49:38.573Z,33.50
2024-02-29T04:52:06.835Z,32.40
2024-02-29T04:54:35.959Z,33.90
2024-02-29T04:57:03.732Z,32.13
2024-02-29T04:59:32.763Z,31.75
2024-02-29T05:02:02.545Z,32.53
2024-02-29T05:04:30.586Z,35.08
2024-02-29T05:06:58.430Z,33.63
2024-02-29T05:09:26.309Z,32.20
2024-02-29T05:11:55.971Z,32.47
2024-02-29T05:14:23.750Z,31.77
2024-02-29T05:16:51.486Z,31.52
2024-02-29T05:19:19.312Z,31.67
2024-02-29T05:21:48.255Z,33.97
2024-02-29T05:24:16.163Z,31.58
2024-02-29T05:26:43.909Z,33.60
2024-02-29T05:29:13.122Z,32.25
2024-02-29T05:31:40.841Z,31.77
2024-02-29T05:34:09.197Z,32.28
2024-02-29T05:36:37.000Z,34.42
2024-02-29T05:39:04.890Z,30.13
2024-02-29T05:41:32.722Z,32.35
2024-02-29T05:44:00.484Z,32.30
2024-02-29T05:46:29.638Z,31.67
2024-02-29T05:48:58.625Z,32.33
2024-02-29T05:51:26.987Z,32.58
2024-02-29T05:53:56.058Z,33.00
2024-02-29T05:56:23.984Z,33.58
2024-02-29T05:58:51.768Z,32.65
2024-02-29T06:01:19.988Z,34.42
2024-02-29T06:03:49.302Z,31.95
2024-02-29T06:06:17.415Z,32.85
2024-02-29T06:08:45.261Z,31.98
2024-02-29T06:11:15.123Z,31.48
2024-02-29T06:13:42.979Z,32.10
2024-02-29T06:16:13.416Z,33.10
2024-02-29T06:18:41.196Z,34.35
2024-02-29T06:21:11.438Z,33.50
2024-02-29T06:23:39.205Z,32.58
2024-02-29T06:26:07.081Z,32.78
2024-02-29T06:28:34.867Z,32.38
2024-02-29T06:31:03.046Z,33.78
2024-02-29T06:33:30.836Z,34.15
2024-02-29T06:35:58.818Z,33.83
2024-02-29T06:38:27.925Z,32.63
2024-02-29T06:40:55.999Z,34.03
2024-02-29T06:43:23.818Z,33.80
2024-02-29T06:45:52.370Z,34.42
2024-02-29T06:48:21.310Z,32.47
2024-02-29T06:50:49.616Z,34.03
2024-02-29T06:53:17.398Z,33.88
2024-02-29T06:55:46.602Z,34.03
2024-02-29T06:58:14.396Z,33.30
2024-02-29T07:00:42.270Z,32.25
2024-02-29T07:03:10.674Z,34.38
2024-02-29T07:05:38.641Z,31.45
2024-02-29T07:08:07.306Z,30.67
2024-02-29T07:10:35.030Z,30.95
2024-02-29T07:13:04.205Z,29.38
2024-02-29T07:15:32.320Z,32.28
2024-02-29T07:18:00.182Z,31.20
2024-02-29T07:20:29.136Z,32.45
2024-02-29T07:22:58.233Z,29.77
2024-02-29T07:25:26.242Z,32.15
2024-02-29T07:27:55.981Z,29.90
2024-02-29T07:30:25.345Z,30.42
2024-02-29T07:32:53.560Z,30.08
2024-02-29T07:35:21.371Z,32.53
2024-02-29T07:37:51.147Z,33.60
2024-02-29T07:40:20.699Z,32.70
2024-02-29T07:42:48.580Z,29.55
2024-02-29T07:45:19.382Z,30.90
2024-02-29T07:47:50.251Z,30.75
2024-02-29T07:50:18.996Z,31.45
2024-02-29T07:52:46.837Z,34.95
2024-02-29T07:55:15.858Z,31.13
2024-02-29T07:57:43.877Z,31.85
2024-02-29T08:00:12.854Z,31.88
2024-02-29T08:02:43.557Z,31.45
2024-02-29T08:05:12.779Z,33.50
2024-02-29T08:07:40.541Z,28.77
2024-02-29T08:10:09.853Z,31.98
2024-02-29T08:12:37.632Z,29.35
2024-02-29T08:15:06.109Z,31.92
2024-02-29T08:17:33.845Z,30.92
2024-02-29T08:20:01.736Z,30.17
2024-02-29T08:22:30.889Z,30.20
2024-02-29T08:24:58.723Z,29.65
2024-02-29T08:27:26.971Z,30.92
2024-02-29T08:29:54.711Z,27.75
2024-02-29T08:32:22.445Z,31.83
2024-02-29T08:34:50.358Z,29.27
2024-02-29T08:37:18.134Z,29.35
2024-02-29T08:39:47.331Z,28.75
2024-02-29T08:42:15.113Z,27.98
2024-02-29T08:44:44.489Z,28.05
2024-02-29T08:47:12.173Z,26.38
2024-02-29T08:49:40.338Z,28.05
2024-02-29T08:52:09.068Z,30.58
2024-02-29T08:54:37.536Z,30.08
2024-02-29T08:57:08.549Z,29.42
2024-02-29T08:59:36.589Z,29.10
2024-02-29T09:02:06.561Z,28.20
2024-02-29T09:04:34.471Z,26.90
2024-02-29T09:07:02.311Z,27.48
2024-02-29T09:09:30.549Z,28.35
2024-02-29T09:11:58.310Z,27.92
2024-02-29T09:14:27.517Z,26.00
2024-02-29T09:16:55.281Z,27.88
2024-02-29T09:19:23.103Z,26.55
2024-02-29T09:21:50.958Z,28.95
2024-02-29T09:24:19.317Z,26.30
2024-02-29T09:26:47.108Z,25.65
2024-02-29T09:29:14.963Z,25.88
2024-02-29T09:31:44.771Z,24.10
2024-02-29T09:34:12.550Z,23.88
2024-02-29T09:36:40.376Z,26.02
2024-02-29T09:39:08.424Z,24.25
2024-02-29T09:41:58.837Z,23.35
2024-02-29T09:44:25.623Z,19.95
2024-02-29T09:46:54.786Z,20.27
2024-02-29T09:49:23.445Z,19.98
2024-02-29T09:51:51.650Z,24.23
2024-02-29T09:54:19.680Z,22.30
2024-02-29T09:56:48.239Z,21.83
2024-02-29T09:59:18.518Z,21.58
2024-02-29T10:01:48.493Z,21.67
2024-02-29T10:04:17.919Z,21.88
2024-02-29T10:06:46.042Z,21.38
2024-02-29T10:09:13.889Z,21.02
2024-02-29T10:11:42.495Z,20.90
2024-02-29T10:14:20.708Z,21.35
2024-02-29T10:16:51.716Z,22.00
2024-02-29T10:19:21.229Z,24.30
2024-02-29T10:21:49.312Z,20.23
2024-02-29T10:24:17.646Z,19.60
2024-02-29T10:26:45.424Z,20.30
2024-02-29T10:29:15.986Z,20.90
2024-02-29T10:31:48.028Z,18.80
2024-02-29T10:34:21.140Z,19.92
2024-02-29T10:36:50.367Z,19.63
2024-02-29T10:39:18.186Z,19.77
2024-02-29T10:41:51.419Z,20.23
2024-02-29T10:44:22.712Z,20.23
2024-02-29T10:46:51.753Z,19.57
2024-02-29T10:49:26.350Z,19.45
2024-02-29T10:52:01.351Z,18.60
2024-02-29T10:54:33.995Z,18.05
2024-02-29T10:57:01.724Z,18.83
2024-02-29T10:59:30.870Z,18.38
2024-02-29T11:01:58.954Z,18.95
2024-02-29T11:04:27.854Z,18.55
2024-02-29T11:06:57.478Z,18.20
2024-02-29T11:09:28.259Z,18.10
2024-02-29T11:12:09.314Z,19.70
2024-02-29T11:14:37.543Z,19.20
2024-02-29T11:17:06.804Z,19.40
2024-02-29T11:19:43.502Z,19.50
2024-02-29T11:22:20.817Z,18.48
2024-02-29T11:24:48.653Z,18.38
2024-02-29T11:27:16.528Z,20.63
2024-02-29T11:29:47.884Z,20.10
2024-02-29T11:32:16.032Z,20.95
2024-02-29T11:34:44.507Z,20.42
2024-02-29T11:37:12.524Z,20.42
2024-02-29T11:39:42.631Z,21.05
2024-02-29T11:42:10.398Z,20.60
2024-02-29T11:44:38.185Z,20.50
2024-02-29T11:47:05.976Z,21.30
2024-02-29T11:49:35.145Z,20.17
2024-02-29T11:52:03.200Z,20.77
2024-02-29T11:54:32.003Z,19.80
2024-02-29T11:57:00.138Z,20.52
2024-02-29T11:59:28.245Z,21.35
2024-02-29T12:01:56.074Z,21.98
2024-02-29T12:04:23.953Z,21.30
2024-02-29T12:06:51.870Z,21.17
2024-02-29T12:09:20.421Z,21.98
2024-02-29T12:11:49.320Z,22.10
2024-02-29T12:14:20.466Z,22.58
2024-02-29T12:16:48.843Z,21.15
2024-02-29T12:19:17.190Z,22.02
2024-02-29T12:21:45.294Z,21.92
2024-02-29T12:24:13.153Z,21.58
2024-02-29T12:26:42.400Z,21.40
2024-02-29T12:29:10.775Z,21.88
2024-02-29T12:31:42.565Z,22.25
2024-02-29T12:34:10.412Z,22.58
2024-02-29T12:36:38.215Z,23.02
2024-02-29T12:39:05.961Z,23.25
2024-02-29T12:41:33.811Z,23.73
2024-02-29T12:44:05.979Z,21.85
2024-02-29T12:46:33.820Z,22.80
2024-02-29T12:49:04.831Z,24.02
2024-02-29T12:51:32.716Z,24.02
2024-02-29T12:54:00.405Z,23.90
2024-02-29T12:56:28.246Z,23.23
2024-02-29T12:58:55.995Z,23.40
2024-02-29T13:01:23.928Z,24.38
2024-02-29T13:03:53.099Z,23.63
2024-02-29T13:06:22.484Z,24.65
2024-02-29T13:08:51.224Z,23.17
2024-02-29T13:11:20.312Z,23.02
2024-02-29T13:13:48.072Z,22.13
2024-02-29T13:16:15.790Z,24.10
2024-02-29T13:18:43.512Z,24.27
2024-02-29T13:21:11.220Z,24.52
2024-02-29T13:23:40.268Z,25.15
2024-02-29T13:26:08.383Z,26.38
2024-02-29T13:28:36.217Z,24.30
2024-02-29T13:31:03.939Z,22.73
2024-02-29T13:33:31.744Z,22.77
2024-02-29T13:35:59.474Z,23.17
2024-02-29T13:38:27.284Z,21.27
2024-02-29T13:40:56.301Z,21.50
2024-02-29T13:43:24.177Z,24.35
2024-02-29T13:45:52.053Z,22.08
2024-02-29T13:48:19.838Z,21.98
2024-02-29T13:50:47.535Z,22.75
2024-02-29T13:53:15.754Z,24.75
2024-02-29T13:55:45.832Z,22.52
2024-02-29T13:58:16.403Z,23.73
2024-02-29T14:00:45.095Z,20.33
2024-02-29T14:03:13.609Z,22.52
2024-02-29T14:05:41.343Z,19.98
2024-02-29T14:08:09.610Z,20.98
2024-02-29T14:10:37.356Z,21.20
2024-02-29T14:13:05.386Z,20.67
2024-02-29T14:15:34.749Z,23.00
2024-02-29T14:18:02.536Z,21.48
2024-02-29T14:20:31.066Z,21.60
2024-02-29T14:22:58.914Z,21.77
2024-02-29T14:25:26.738Z,23.20
2024-02-29T14:27:54.898Z,21.20
2024-02-29T14:30:22.725Z,21.70
2024-02-29T14:32:51.845Z,22.65
2024-02-29T14:35:19.681Z,22.63
2024-02-29T14:37:47.429Z,20.88
2024-02-29T14:40:15.295Z,21.92
2024-02-29T14:42:43.977Z,23.23
2024-02-29T14:45:11.940Z,21.80
2024-02-29T14:47:40.049Z,22.13
2024-02-29T14:50:10.611Z,23.08
2024-02-29T14:52:40.624Z,22.73
2024-02-29T14:55:09.181Z,23.33
2024-02-29T14:57:37.005Z,22.33
2024-02-29T15:00:13.196Z,22.33
2024-02-29T15:02:41.101Z,22.67
2024-02-29T15:05:10.892Z,24.38
2024-02-29T15:07:39.229Z,22.02
2024-02-29T15:10:08.153Z,23.02
2024-02-29T15:12:35.955Z,23.00
2024-02-29T15:15:03.731Z,22.83
2024-02-29T15:17:33.860Z,25.77
2024-02-29T15:20:02.277Z,25.13
2024-02-29T15:22:31.541Z,24.48
2024-02-29T15:24:59.300Z,24.73
2024-02-29T15:27:27.474Z,25.45
2024-02-29T15:29:55.272Z,26.90
2024-02-29T15:32:23.705Z,24.83
2024-02-29T15:34:51.443Z,24.80
2024-02-29T15:37:19.323Z,25.23
2024-02-29T15:39:48.538Z,25.60
2024-02-29T15:42:16.308Z,24.70
2024-02-29T15:44:44.046Z,24.60
2024-02-29T15:47:11.801Z,25.10
2024-02-29T15:49:39.535Z,24.38
2024-02-29T15:52:07.768Z,29.17
2024-02-29T15:54:35.533Z,25.42
2024-02-29T15:57:06.759Z,27.77
2024-02-29T15:59:34.520Z,25.37
2024-02-29T16:02:02.321Z,26.45
2024-02-29T16:04:31.269Z,29.33
2024-02-29T16:06:59.862Z,26.35
2024-02-29T16:09:28.078Z,25.98
2024-02-29T16:11:55.841Z,25.65
2024-02-29T16:14:28.471Z,26.42
2024-02-29T16:16:58.907Z,28.13
2024-02-29T16:19:28.835Z,29.20
2024-02-29T16:21:57.954Z,28.10
2024-02-29T16:24:25.669Z,28.60
2024-02-29T16:26:54.436Z,29.45
2024-02-29T16:29:22.134Z,27.52
2024-02-29T16:31:51.196Z,30.42
2024-02-29T16:34:18.992Z,28.65
2024-02-29T16:36:46.822Z,29.55
2024-02-29T16:39:14.621Z,30.05
2024-02-29T16:41:42.975Z,29.67
2024-02-29T16:44:10.695Z,29.60
2024-02-29T16:46:38.535Z,29.95
2024-02-29T16:49:07.714Z,30.08
2024-02-29T16:51:35.486Z,29.38
2024-02-29T16:54:03.219Z,33.45
2024-02-29T16:56:30.966Z,32.25
2024-02-29T16:58:58.777Z,34.53
2024-02-29T17:01:26.520Z,34.03
2024-02-29T17:03:54.264Z,34.22
2024-02-29T17:06:23.477Z,32.80
2024-02-29T17:08:51.167Z,34.15
2024-02-29T17:11:18.957Z,31.58
2024-02-29T17:13:47.088Z,30.27
2024-02-29T17:16:14.859Z,30.88
2024-02-29T17:18:42.963Z,32.97
2024-02-29T17:21:10.895Z,28.63
2024-02-29T17:23:40.615Z,30.55
2024-02-29T17:26:16.425Z,29.52
2024-02-29T17:28:44.193Z,30.95
2024-02-29T17:31:12.147Z,31.45
2024-02-29T17:33:41.187Z,30.08
2024-02-29T17:36:09.118Z,31.73
2024-02-29T17:38:38.010Z,31.48
2024-02-29T17:41:07.154Z,31.52
2024-02-29T17:43:34.921Z,30.33
2024-02-29T17:46:03.392Z,28.35
2024-02-29T17:48:31.202Z,31.80
2024-02-29T17:50:59.703Z,31.48
2024-02-29T17:53:27.449Z,28.95
2024-02-29T17:55:55.256Z,29.73
2024-02-29T17:58:24.844Z,30.50
2024-02-29T18:00:52.793Z,31.10
2024-02-29T18:03:20.613Z,33.03
2024-02-29T18:05:48.360Z,34.00
2024-02-29T18:08:16.140Z,32.95
2024-02-29T18:10:44.207Z,31.55
2024-02-29T18:13:12.122Z,34.85
2024-02-29T18:15:41.391Z,37.42
2024-02-29T18:18:09.608Z,31.95
2024-02-29T18:20:37.438Z,30.90
2024-02-29T18:23:05.472Z,31.02
2024-02-29T18:25:33.241Z,31.52
2024-02-29T18:28:01.083Z,33.13
2024-02-29T18:30:28.908Z,32.50
2024-02-29T18:32:58.068Z,34.92
2024-02-29T18:35:26.016Z,33.58
2024-02-29T18:37:53.776Z,32.40
2024-02-29T18:40:21.625Z,31.42
2024-02-29T18:42:50.089Z,31.08
2024-02-29T18:45:18.616Z,29.45
2024-02-29T18:47:46.585Z,29.40
2024-02-29T18:50:15.712Z,30.88
2024-02-29T18:52:43.509Z,30.33
2024-02-29T18:55:11.393Z,34.00
2024-02-29T18:57:39.173Z,30.17
2024-02-29T19:00:09.756Z,28.88
2024-02-29T19:02:37.587Z,33.92
2024-02-29T19:05:06.463Z,30.83
2024-02-29T19:07:35.598Z,31.70
2024-02-29T19:10:03.598Z,30.65
2024-02-29T19:12:31.517Z,31.77
2024-02-29T19:14:59.228Z,31.15
2024-02-29T19:17:26.969Z,32.10
2024-02-29T19:19:55.580Z,32.72
2024-02-29T19:22:23.565Z,33.53
2024-02-29T19:24:52.901Z,33.38
2024-02-29T19:27:22.935Z,33.03
2024-02-29T19:29:53.196Z,31.10
2024-02-29T19:32:21.104Z,28.45
2024-02-29T19:34:50.115Z,31.80
2024-02-29T19:37:18.159Z,29.95
2024-02-29T19:39:48.031Z,29.85
2024-02-29T19:42:18.108Z,30.88
2024-02-29T19:44:45.955Z,32.42
2024-02-29T19:47:14.540Z,33.05
2024-02-29T19:49:42.392Z,31.20
2024-02-29T19:52:10.753Z,31.92
2024-02-29T19:54:38.874Z,31.65
2024-02-29T19:57:06.824Z,34.00
2024-02-29T19:59:36.055Z,33.17
2024-02-29T20:02:03.893Z,33.15
2024-02-29T20:04:31.855Z,33.28
2024-02-29T20:06:59.709Z,33.25
2024-02-29T20:09:27.539Z,31.13
2024-02-29T20:11:55.537Z,30.95
2024-02-29T20:14:23.326Z,29.95
2024-02-29T20:16:52.520Z,31.52
2024-02-29T20:19:20.384Z,30.38
2024-02-29T20:21:48.637Z,31.23
2024-02-29T20:24:16.490Z,30.52
2024-02-29T20:26:44.642Z,31.67
2024-02-29T20:29:12.440Z,32.80
2024-02-29T20:31:40.261Z,33.88
2024-02-29T20:34:09.427Z,32.50
2024-02-29T20:36:37.493Z,32.20
2024-02-29T20:39:05.422Z,35.88
2024-02-29T20:41:33.201Z,33.03
2024-02-29T20:44:01.432Z,32.55
2024-02-29T20:46:30.522Z,32.80
2024-02-29T20:48:58.403Z,33.30
2024-02-29T20:51:28.672Z,31.25
2024-02-29T20:53:56.588Z,32.17
2024-02-29T20:56:24.432Z,32.58
2024-02-29T20:58:52.188Z,30.58
2024-02-29T21:01:20.018Z,31.42
2024-02-29T21:03:48.957Z,29.23
2024-02-29T21:06:18.305Z,31.48
2024-02-29T21:08:47.410Z,32.42
2024-02-29T21:11:15.247Z,31.73
2024-02-29T21:13:43.543Z,29.65
2024-02-29T21:16:11.266Z,31.52
2024-02-29T21:18:38.990Z,31.90
2024-02-29T21:21:07.024Z,33.97
2024-02-29T21:23:35.089Z,36.25
2024-02-29T21:26:04.405Z,34.38
2024-02-29T21:28:32.238Z,32.10
2024-02-29T21:31:00.030Z,34.50
2024-02-29T21:33:27.830Z,34.90
2024-02-29T21:35:56.041Z,36.22
2024-02-29T21:38:23.813Z,34.50
2024-02-29T21:40:51.681Z,34.70
2024-02-29T21:43:20.803Z,35.70
2024-02-29T21:45:48.675Z,37.17
2024-02-29T21:48:16.461Z,31.98
2024-02-29T21:50:45.974Z,31.70
2024-02-29T21:53:13.753Z,34.03
2024-02-29T21:55:41.467Z,32.47
2024-02-29T21:58:09.435Z,33.50
2024-02-29T22:00:38.575Z,35.60
2024-02-29T22:03:06.490Z,33.38
2024-02-29T22:05:34.241Z,33.42
2024-02-29T22:08:01.979Z,33.03
2024-02-29T22:10:29.846Z,34.75
2024-02-29T22:12:57.578Z,33.03
2024-02-29T22:15:25.312Z,33.88
2024-02-29T22:17:56.126Z,30.85
2024-02-29T22:20:24.552Z,31.58
2024-02-29T22:22:52.499Z,31.75
2024-02-29T22:25:20.399Z,29.75
2024-02-29T22:27:48.149Z,31.00
2024-02-29T22:30:16.326Z,29.45
2024-02-29T22:32:44.079Z,29.42
2024-02-29T22:35:13.409Z,29.27
2024-02-29T22:37:41.223Z,30.88
2024-02-29T22:40:10.409Z,30.50
2024-02-29T22:42:38.183Z,31.15
2024-02-29T22:45:07.081Z,29.52
2024-02-29T22:47:34.828Z,29.35
2024-02-29T22:50:02.553Z,29.95
2024-02-29T22:52:31.629Z,30.30
2024-02-29T22:54:59.486Z,31.27
2024-02-29T22:57:27.275Z,32.30
2024-02-29T22:59:54.997Z,32.28
2024-02-29T23:02:22.889Z,34.13
2024-02-29T23:04:50.621Z,33.33
2024-02-29T23:07:18.831Z,33.88
2024-02-29T23:09:48.016Z,34.80
2024-02-29T23:12:15.773Z,33.33
2024-02-29T23:14:43.533Z,34.20
2024-02-29T23:17:11.482Z,34.83
2024-02-29T23:19:39.219Z,31.75
2024-02-29T23:22:07.092Z,32.70
2024-02-29T23:24:34.971Z,34.20
2024-02-29T23:27:04.190Z,32.00
2024-02-29T23:29:31.979Z,32.55
2024-02-29T23:31:59.815Z,35.10
2024-02-29T23:34:27.679Z,34.10
2024-02-29T23:36:55.561Z,32.28
2024-02-29T23:39:23.390Z,32.40
2024-02-29T23:41:51.157Z,33.53
2024-02-29T23:44:20.239Z,35.10
2024-02-29T23:46:48.039Z,31.45
2024-02-29T23:49:16.033Z,33.50
2024-02-29T23:51:44.512Z,34.80
2024-02-29T23:54:12.243Z,30.67
2024-02-29T23:56:39.961Z,29.70
2024-02-29T23:59:07.670Z,31.05
